createdAt,value
2023-03-06T00:54:55.252Z,500.00
2023-03-06T06:07:52.395Z,508.00
2023-03-06T06:47:22.237Z,552.00
2023-03-06T06:53:52.970Z,587.00
2023-03-06T06:56:53.956Z,613.00
2023-03-06T07:00:52.931Z,651.00
2023-03-06T07:07:52.855Z,659.00
2023-03-06T07:24:52.765Z,649.00
2023-03-06T07:28:53.098Z,645.00
2023-03-06T07:29:52.639Z,647.00
2023-03-06T07:31:52.653Z,647.00
2023-03-06T07:32:52.611Z,650.00
2023-03-06T07:33:52.618Z,646.00
2023-03-06T07:34:52.620Z,647.00
2023-03-06T07:35:52.614Z,646.00
2023-03-06T07:36:52.642Z,646.00
2023-03-06T07:38:52.561Z,646.00
2023-03-06T07:40:52.555Z,645.00
2023-03-06T07:41:52.533Z,645.00
2023-03-06T07:42:52.529Z,640.00
2023-03-06T07:43:52.510Z,642.00
2023-03-06T07:44:52.998Z,636.00
2023-03-06T07:45:52.502Z,640.00
2023-03-06T07:46:52.560Z,639.00
2023-03-06T07:48:52.587Z,647.00
2023-03-06T07:49:52.470Z,636.00
2023-03-06T07:50:52.474Z,638.00
2023-03-06T07:51:52.447Z,637.00
2023-03-06T07:52:52.437Z,642.00
2023-03-06T07:53:52.434Z,642.00
2023-03-06T07:54:52.469Z,641.00
2023-03-06T07:55:52.425Z,633.00
2023-03-06T07:56:52.407Z,637.00
2023-03-06T07:57:52.474Z,633.00
2023-03-06T07:58:52.387Z,636.00
2023-03-06T07:59:52.381Z,631.00
2023-03-06T08:00:52.486Z,638.00
2023-03-06T08:01:52.358Z,628.00
2023-03-06T08:03:52.413Z,628.00
2023-03-06T08:04:52.326Z,629.00
2023-03-06T08:05:52.969Z,637.00
2023-03-06T08:06:52.333Z,635.00
2023-03-06T08:08:52.293Z,630.00
2023-03-06T08:09:52.321Z,638.00
2023-03-06T08:10:52.305Z,631.00
2023-03-06T08:11:52.276Z,635.00
2023-03-06T08:13:52.258Z,631.00
2023-03-06T08:14:52.246Z,631.00
2023-03-06T08:15:52.406Z,632.00
2023-03-06T08:18:52.224Z,634.00
2023-03-06T08:19:52.215Z,628.00
2023-03-06T08:20:52.201Z,626.00
2023-03-06T08:21:52.355Z,628.00
2023-03-06T08:23:52.183Z,627.00
2023-03-06T08:24:52.176Z,627.00
2023-03-06T08:25:52.174Z,624.00
2023-03-06T08:50:51.898Z,814.00
2023-03-06T08:52:51.887Z,852.00
2023-03-06T09:04:51.769Z,1040.00
2023-03-06T09:18:52.500Z,1290.00
2023-03-06T09:41:51.541Z,1597.00
2023-03-06T11:12:50.615Z,1758.00
2023-03-06T12:00:50.160Z,1508.00
2023-03-06T20:51:45.316Z,885.00
2023-03-06T20:52:45.310Z,879.00
2023-03-06T20:53:45.325Z,904.00
2023-03-06T20:54:45.294Z,897.00
2023-03-06T20:55:45.284Z,881.00
2023-03-06T20:56:45.274Z,875.00
2023-03-06T20:57:45.272Z,870.00
2023-03-06T20:58:45.256Z,879.00
2023-03-06T20:59:45.248Z,879.00
2023-03-06T21:00:45.262Z,888.00
2023-03-06T21:01:45.318Z,893.00
2023-03-06T21:02:45.239Z,903.00
2023-03-06T21:03:45.220Z,880.00
2023-03-06T21:04:45.282Z,891.00
2023-03-06T21:05:45.297Z,878.00
2023-03-06T21:06:45.214Z,877.00
2023-03-06T21:07:45.174Z,871.00
2023-03-06T21:08:45.168Z,876.00
2023-03-06T21:09:45.178Z,878.00
2023-03-06T21:10:45.145Z,876.00
2023-03-06T21:11:45.143Z,866.00
2023-03-06T21:12:45.135Z,873.00
2023-03-06T21:13:45.122Z,858.00
2023-03-06T21:14:45.111Z,876.00
2023-03-06T21:15:45.145Z,870.00
2023-03-06T21:16:45.100Z,868.00
2023-03-06T21:17:45.081Z,849.00
2023-03-06T21:18:45.083Z,857.00
2023-03-06T21:19:45.069Z,852.00
2023-03-06T21:20:45.056Z,855.00
2023-03-06T21:21:45.049Z,872.00
2023-03-06T21:22:45.043Z,855.00
2023-03-06T21:23:45.025Z,856.00
2023-03-06T21:24:45.043Z,860.00
2023-03-06T21:25:45.046Z,863.00
2023-03-06T21:26:45.002Z,843.00
2023-03-06T21:27:44.996Z,863.00
2023-03-06T21:28:44.992Z,843.00
2023-03-06T21:29:44.982Z,852.00
2023-03-06T21:30:44.979Z,843.00
2023-03-06T21:31:45.006Z,842.00
2023-03-06T21:32:44.952Z,845.00
2023-03-06T21:33:44.953Z,847.00
2023-03-06T21:34:44.929Z,841.00
2023-03-06T21:35:44.990Z,846.00
2023-03-06T21:36:44.911Z,844.00
2023-03-06T21:37:44.905Z,839.00
2023-03-06T21:38:44.893Z,856.00
2023-03-06T21:39:44.891Z,839.00
2023-03-06T21:40:44.875Z,836.00
2023-03-06T21:41:44.897Z,840.00
2023-03-06T21:42:44.856Z,852.00
2023-03-06T21:43:44.848Z,840.00
2023-03-06T21:44:44.841Z,830.00
2023-03-06T21:45:44.907Z,824.00
2023-03-06T21:46:44.835Z,839.00
2023-03-06T21:47:44.813Z,831.00
2023-03-06T21:48:44.807Z,824.00
2023-03-06T21:49:44.787Z,836.00
2023-03-06T21:50:44.785Z,827.00
2023-03-06T21:51:44.778Z,819.00
2023-03-06T21:52:44.768Z,817.00
2023-03-06T21:53:44.768Z,828.00
2023-03-06T21:54:44.748Z,829.00
2023-03-06T21:55:44.741Z,819.00
2023-03-06T21:56:44.729Z,827.00
2023-03-06T21:57:44.744Z,825.00
2023-03-06T21:58:44.715Z,821.00
2023-03-06T21:59:44.703Z,811.00
2023-03-06T22:00:44.791Z,823.00
2023-03-06T22:01:44.686Z,827.00
2023-03-06T22:02:44.684Z,827.00
2023-03-06T22:03:44.665Z,826.00
2023-03-06T22:04:44.661Z,816.00
2023-03-06T22:05:44.643Z,828.00
2023-03-06T22:06:44.634Z,805.00
2023-03-06T22:07:44.627Z,815.00
2023-03-06T22:08:44.631Z,800.00
2023-03-06T22:09:44.610Z,820.00
2023-03-06T22:10:45.378Z,809.00
2023-03-06T22:11:44.591Z,819.00
2023-03-06T22:12:44.581Z,840.00
2023-03-06T22:13:44.613Z,831.00
2023-03-06T22:14:44.574Z,814.00
2023-03-06T22:15:44.585Z,822.00
2023-03-06T22:16:44.673Z,813.00
2023-03-06T22:17:44.537Z,809.00
2023-03-06T22:18:44.562Z,811.00
2023-03-06T22:19:44.555Z,811.00
2023-03-06T22:20:44.508Z,811.00
2023-03-06T22:21:44.542Z,808.00
2023-03-06T22:23:44.486Z,807.00
2023-03-06T22:24:44.490Z,798.00
2023-03-06T22:25:44.464Z,800.00
2023-03-06T22:26:44.452Z,798.00
2023-03-06T22:27:44.451Z,797.00
2023-03-06T22:28:44.435Z,802.00
2023-03-06T22:29:44.445Z,808.00
2023-03-06T22:30:44.414Z,795.00
2023-03-06T22:31:44.466Z,799.00
2023-03-06T22:32:44.537Z,800.00
2023-03-06T22:33:44.383Z,786.00
2023-03-06T22:34:44.374Z,805.00
2023-03-06T22:35:44.396Z,793.00
2023-03-06T22:36:44.445Z,801.00
2023-03-06T22:37:44.349Z,801.00
2023-03-06T22:38:44.335Z,796.00
2023-03-06T22:39:44.327Z,801.00
2023-03-06T22:40:44.316Z,785.00
2023-03-06T22:41:44.318Z,783.00
2023-03-06T22:42:44.302Z,790.00
2023-03-06T22:43:44.303Z,784.00
2023-03-06T22:44:44.276Z,788.00
2023-03-06T22:45:44.324Z,797.00
2023-03-06T22:46:44.273Z,799.00
2023-03-06T22:47:44.268Z,778.00
2023-03-06T22:48:44.250Z,786.00
2023-03-06T22:49:44.237Z,799.00
2023-03-06T22:50:44.227Z,796.00
2023-03-06T22:51:44.219Z,785.00
2023-03-06T22:52:44.203Z,794.00
2023-03-06T22:53:44.195Z,790.00
2023-03-06T22:54:44.190Z,788.00
2023-03-06T22:55:44.184Z,785.00
2023-03-06T22:56:44.170Z,778.00
2023-03-06T22:57:44.169Z,783.00
2023-03-06T22:58:44.155Z,785.00
2023-03-06T22:59:44.140Z,792.00
2023-03-06T23:00:44.132Z,788.00
2023-03-06T23:01:44.198Z,778.00
2023-03-06T23:02:44.120Z,782.00
2023-03-06T23:03:44.109Z,787.00
2023-03-06T23:04:44.179Z,795.00
2023-03-06T23:05:44.110Z,769.00
2023-03-06T23:06:44.079Z,777.00
2023-03-06T23:07:44.081Z,785.00
2023-03-06T23:08:44.068Z,773.00
2023-03-06T23:59:44.367Z,733.00
